createdAt,value
2022-10-31T00:01:26.676Z,11.7
2022-10-31T00:06:28.775Z,11.8
2022-10-31T00:11:31.228Z,11.8
2022-10-31T00:16:33.181Z,11.7
2022-10-31T00:21:35.336Z,11.8
2022-10-31T00:26:37.576Z,11.7
2022-10-31T00:31:39.479Z,11.6
2022-10-31T00:36:41.465Z,11.5
2022-10-31T00:41:43.803Z,11.5
2022-10-31T00:46:45.730Z,11.5
2022-10-31T00:51:47.636Z,11.4
2022-10-31T00:56:50.101Z,11.4
2022-10-31T01:01:53.106Z,11.4
2022-10-31T01:06:55.305Z,11.4
2022-10-31T01:11:57.479Z,11.4
2022-10-31T01:16:59.516Z,11.4
2022-10-31T01:22:01.500Z,11.2
2022-10-31T01:27:03.471Z,11.2
2022-10-31T01:32:05.434Z,11.2
2022-10-31T01:37:07.430Z,11.2
2022-10-31T01:42:10.901Z,11.1
2022-10-31T01:47:12.920Z,11.1
2022-10-31T01:52:14.843Z,11.2
2022-10-31T01:57:17.702Z,11.1
2022-10-31T02:02:20.318Z,11.2
2022-10-31T02:07:22.519Z,11.2
2022-10-31T02:12:24.424Z,11.1
2022-10-31T02:17:26.498Z,11.1
2022-10-31T02:22:28.439Z,11
2022-10-31T02:27:30.306Z,11
2022-10-31T02:32:32.214Z,10.9
2022-10-31T02:37:34.713Z,10.9
2022-10-31T02:42:36.744Z,10.9
2022-10-31T02:47:38.776Z,10.9
2022-10-31T02:52:40.934Z,11
2022-10-31T02:57:42.947Z,11.1
2022-10-31T03:02:45.712Z,11.1
2022-10-31T03:07:47.806Z,11
2022-10-31T03:12:50.790Z,11
2022-10-31T03:17:52.841Z,10.9
2022-10-31T03:22:54.786Z,11
2022-10-31T03:27:57.157Z,11
2022-10-31T03:33:01.646Z,11.1
2022-10-31T03:38:09.132Z,11
2022-10-31T03:43:11.755Z,11.1
2022-10-31T03:48:13.777Z,11
2022-10-31T03:53:18.452Z,10.9
2022-10-31T03:58:21.941Z,10.9
2022-10-31T04:03:24.086Z,10.8
2022-10-31T04:08:25.966Z,10.8
2022-10-31T04:13:28.091Z,10.7
2022-10-31T04:18:30.137Z,10.7
2022-10-31T04:23:32.148Z,10.7
2022-10-31T04:33:35.335Z,10.7
2022-10-31T04:38:37.216Z,10.7
2022-10-31T04:43:39.585Z,10.8
2022-10-31T04:48:41.587Z,10.9
2022-10-31T04:53:43.618Z,10.9
2022-10-31T04:58:45.761Z,10.8
2022-10-31T05:03:48.003Z,10.7
2022-10-31T05:08:49.901Z,10.6
2022-10-31T05:13:52.488Z,10.6
2022-10-31T05:18:54.609Z,10.6
2022-10-31T05:23:57.005Z,10.6
2022-10-31T05:28:59.002Z,10.5
2022-10-31T05:34:00.943Z,10.5
2022-10-31T05:39:02.837Z,10.6
2022-10-31T05:44:05.168Z,10.6
2022-10-31T05:49:07.167Z,10.4
2022-10-31T05:54:16.826Z,10.4
2022-10-31T05:59:19.290Z,10.5
2022-10-31T06:04:21.567Z,10.5
2022-10-31T06:09:23.549Z,10.5
2022-10-31T06:14:25.745Z,10.5
2022-10-31T06:19:27.675Z,10.5
2022-10-31T06:24:29.708Z,10.6
2022-10-31T06:29:31.686Z,10.6
2022-10-31T06:34:34.803Z,10.7
2022-10-31T06:39:36.764Z,10.6
2022-10-31T06:44:38.648Z,10.5
2022-10-31T06:49:40.549Z,10.5
2022-10-31T06:54:42.369Z,10.6
2022-10-31T06:59:44.244Z,10.6
2022-10-31T07:04:49.264Z,10.8
2022-10-31T07:09:53.945Z,10.8
2022-10-31T07:14:58.047Z,10.8
2022-10-31T07:19:59.988Z,10.8
2022-10-31T07:25:01.890Z,10.8
2022-10-31T07:30:03.969Z,10.7
2022-10-31T07:35:05.877Z,10.9
2022-10-31T07:40:07.860Z,10.9
2022-10-31T07:45:09.891Z,11.1
2022-10-31T07:50:11.883Z,11.1
2022-10-31T07:55:13.955Z,10.8
2022-10-31T08:00:17.915Z,10.8
2022-10-31T08:05:20.446Z,10.7
2022-10-31T08:10:22.432Z,10.7
2022-10-31T08:15:25.853Z,10.9
2022-10-31T08:20:27.936Z,10.8
2022-10-31T08:25:39.692Z,11.1
2022-10-31T08:30:31.693Z,11.1
2022-10-31T08:35:34.302Z,11
2022-10-31T08:40:36.375Z,10.9
2022-10-31T08:45:38.779Z,10.9
2022-10-31T08:50:40.693Z,11
2022-10-31T08:55:43.417Z,11.2
2022-10-31T09:00:46.132Z,11.2
2022-10-31T09:05:48.797Z,11.2
2022-10-31T09:10:50.867Z,11.1
2022-10-31T09:15:52.798Z,11.4
2022-10-31T09:20:54.657Z,11.5
2022-10-31T09:25:56.594Z,11.4
2022-10-31T09:30:58.757Z,11.6
2022-10-31T09:36:00.663Z,11.8
2022-10-31T09:41:02.540Z,12.1
2022-10-31T09:46:04.974Z,12.1
2022-10-31T09:51:06.996Z,12.1
2022-10-31T09:56:09.044Z,12.2
2022-10-31T10:01:11.853Z,12.1
2022-10-31T10:06:14.447Z,12.1
2022-10-31T10:11:16.406Z,12.1
2022-10-31T10:16:18.342Z,12.3
2022-10-31T10:21:20.793Z,12.4
2022-10-31T10:26:24.088Z,12
2022-10-31T10:31:28.028Z,12
2022-10-31T10:36:30.100Z,12
2022-10-31T10:41:36.350Z,11.8
2022-10-31T10:46:38.339Z,11.8
2022-10-31T10:52:41.955Z,11.7
2022-10-31T10:56:41.276Z,11.8
2022-10-31T11:01:43.216Z,11.8
2022-10-31T11:06:45.342Z,11.9
2022-10-31T11:11:47.280Z,12.3
2022-10-31T11:16:49.335Z,12.5
2022-10-31T11:21:55.692Z,12.3
2022-10-31T11:26:58.997Z,12.3
2022-10-31T11:32:01.703Z,12.3
2022-10-31T11:37:03.652Z,12.4
2022-10-31T11:42:10.806Z,12.5
2022-10-31T11:47:13.033Z,12.4
2022-10-31T11:52:15.001Z,12.6
2022-10-31T11:57:19.509Z,12.6
2022-10-31T12:02:21.626Z,12.6
2022-10-31T12:07:23.825Z,12.6
2022-10-31T12:12:25.750Z,12.3
2022-10-31T12:17:27.645Z,12.2
2022-10-31T12:22:29.630Z,12.1
2022-10-31T12:27:32.171Z,12.3
2022-10-31T12:32:34.166Z,12.2
2022-10-31T12:37:36.230Z,12.1
2022-10-31T12:42:38.329Z,12
2022-10-31T12:47:40.408Z,12.2
2022-10-31T12:52:42.739Z,12.2
2022-10-31T12:57:44.875Z,12.4
2022-10-31T13:02:47.795Z,12.5
2022-10-31T13:07:49.972Z,12.6
2022-10-31T13:12:52.643Z,12.5
2022-10-31T13:17:54.704Z,12.5
2022-10-31T13:22:56.865Z,12.3
2022-10-31T13:28:01.902Z,12
2022-10-31T13:33:05.564Z,12.3
2022-10-31T13:38:07.914Z,12.3
2022-10-31T13:43:10.092Z,12.4
2022-10-31T13:48:14.728Z,12.3
2022-10-31T13:53:18.599Z,12.3
2022-10-31T13:58:20.670Z,12.3
2022-10-31T14:04:19.174Z,12
2022-10-31T14:08:27.248Z,12
2022-10-31T14:13:29.554Z,11.8
2022-10-31T14:18:31.487Z,11.7
2022-10-31T14:23:33.764Z,11.6
2022-10-31T14:28:36.719Z,11.4
2022-10-31T14:33:38.904Z,11.4
2022-10-31T14:38:43.599Z,11.4
2022-10-31T14:43:45.677Z,11.5
2022-10-31T14:48:47.701Z,11.5
2022-10-31T14:53:50.748Z,11.4
2022-10-31T14:58:53.702Z,11.4
2022-10-31T15:04:26.134Z,11.3
2022-10-31T15:08:59.692Z,11.3
2022-10-31T15:14:02.437Z,11.3
2022-10-31T15:19:04.981Z,11.2
2022-10-31T15:24:15.982Z,11.3
2022-10-31T15:29:07.933Z,11.3
2022-10-31T15:34:10.701Z,11.1
2022-10-31T15:39:12.689Z,11.1
2022-10-31T15:44:15.904Z,11.1
2022-10-31T15:49:18.301Z,11.1
2022-10-31T15:54:20.295Z,11
2022-10-31T15:59:22.208Z,11.1
2022-10-31T16:04:24.116Z,11.1
2022-10-31T16:09:26.045Z,11.1
2022-10-31T16:14:28.018Z,11
2022-10-31T16:19:30.393Z,10.9
2022-10-31T16:24:32.705Z,10.9
2022-10-31T16:29:34.739Z,10.9
2022-10-31T16:34:36.690Z,10.9
2022-10-31T16:39:39.430Z,10.9
2022-10-31T16:44:42.355Z,10.9
2022-10-31T16:49:45.589Z,11
2022-10-31T16:54:47.685Z,11.1
2022-10-31T16:59:50.156Z,11.1
2022-10-31T17:04:58.170Z,11
2022-10-31T17:10:00.392Z,11
2022-10-31T17:15:02.400Z,11
2022-10-31T17:20:04.964Z,10.9
2022-10-31T17:25:07.275Z,10.9
2022-10-31T17:30:12.371Z,10.9
2022-10-31T17:35:14.688Z,11
2022-10-31T17:40:27.342Z,11
2022-10-31T17:45:24.437Z,11
2022-10-31T17:50:26.845Z,11
2022-10-31T17:55:36.006Z,11.1
2022-10-31T18:00:30.455Z,11
2022-10-31T18:05:32.832Z,11.1
2022-10-31T18:10:34.847Z,11.1
2022-10-31T18:15:36.686Z,11.1
2022-10-31T18:20:41.585Z,11.1
2022-10-31T18:25:44.811Z,11.1
2022-10-31T18:30:47.022Z,11.2
2022-10-31T18:35:49.516Z,11.1
2022-10-31T18:40:51.548Z,11.1
2022-10-31T18:45:59.332Z,11
2022-10-31T18:51:01.382Z,11
2022-10-31T18:56:03.335Z,11
2022-10-31T19:01:05.473Z,11.1
2022-10-31T19:06:07.681Z,11.1
2022-10-31T19:11:09.729Z,11.1
2022-10-31T19:16:11.675Z,11.1
2022-10-31T19:21:13.601Z,11
2022-10-31T19:26:15.610Z,11.1
2022-10-31T19:31:17.607Z,10.9
2022-10-31T19:36:19.533Z,10.9
2022-10-31T19:41:21.542Z,10.8
2022-10-31T19:46:54.313Z,10.9
2022-10-31T19:51:26.461Z,10.9
2022-10-31T19:56:28.528Z,10.9
2022-10-31T20:01:30.661Z,10.9
2022-10-31T20:06:33.358Z,10.9
2022-10-31T20:11:35.296Z,10.9
2022-10-31T20:16:38.494Z,10.9
2022-10-31T20:21:40.982Z,10.9
2022-10-31T20:26:43.197Z,10.9
2022-10-31T20:31:46.338Z,10.9
2022-10-31T20:37:24.697Z,10.9
2022-10-31T20:42:27.853Z,11
2022-10-31T20:47:29.823Z,10.9
2022-10-31T20:52:32.142Z,10.9
2022-10-31T20:57:34.125Z,10.9
2022-10-31T21:02:36.513Z,10.9
2022-10-31T21:07:38.695Z,10.9
2022-10-31T21:12:40.949Z,10.9
2022-10-31T21:17:42.995Z,10.9
2022-10-31T21:22:44.991Z,10.9
2022-10-31T21:27:46.834Z,11
2022-10-31T21:37:49.694Z,10.9
2022-10-31T21:42:51.597Z,10.9
2022-10-31T21:47:53.726Z,10.9
2022-10-31T21:52:55.885Z,10.8
2022-10-31T21:57:57.894Z,10.7
2022-10-31T22:03:00.033Z,10.7
2022-10-31T22:08:03.610Z,10.8
2022-10-31T22:13:06.249Z,10.8
2022-10-31T22:18:08.368Z,10.8
2022-10-31T22:23:10.434Z,10.9
2022-10-31T22:28:13.747Z,10.8
2022-10-31T22:33:15.787Z,10.9
2022-10-31T22:38:17.674Z,10.8
2022-10-31T22:43:20.613Z,10.7
2022-10-31T22:48:23.178Z,10.8
2022-10-31T22:53:25.074Z,10.8
2022-10-31T22:58:27.004Z,10.8
2022-10-31T23:03:28.889Z,10.8
2022-10-31T23:08:31.981Z,10.9
2022-10-31T23:13:33.889Z,10.9
2022-10-31T23:18:52.091Z,10.9
2022-10-31T23:23:44.124Z,10.9
2022-10-31T23:28:46.045Z,10.8
2022-10-31T23:33:47.935Z,10.7
2022-10-31T23:38:49.828Z,10.8
2022-10-31T23:43:51.708Z,10.8
2022-10-31T23:48:53.848Z,10.8
2022-10-31T23:53:56.071Z,10.5
2022-10-31T23:58:58.003Z,10.5
